createdAt,value
2022-11-03T00:00:47.309Z,18.10
2022-11-03T00:03:23.212Z,17.60
2022-11-03T00:06:07.971Z,18.10
2022-11-03T00:08:45.613Z,18.40
2022-11-03T00:11:21.486Z,18.90
2022-11-03T00:13:57.945Z,20.70
2022-11-03T00:16:34.118Z,20.00
2022-11-03T00:19:11.771Z,20.10
2022-11-03T00:21:48.363Z,20.40
2022-11-03T00:24:24.462Z,20.30
2022-11-03T00:27:00.603Z,21.10
2022-11-03T00:29:36.367Z,20.60
2022-11-03T00:32:12.588Z,21.00
2022-11-03T00:34:48.478Z,21.30
2022-11-03T00:37:24.234Z,22.10
2022-11-03T00:40:00.089Z,22.30
2022-11-03T00:42:37.526Z,20.00
2022-11-03T00:45:15.304Z,21.60
2022-11-03T00:48:05.146Z,21.70
2022-11-03T00:50:41.113Z,21.40
2022-11-03T00:53:16.956Z,20.60
2022-11-03T00:55:56.211Z,19.80
2022-11-03T00:58:33.105Z,20.80
2022-11-03T01:01:14.610Z,20.20
2022-11-03T01:04:12.506Z,20.40
2022-11-03T01:06:52.830Z,18.90
2022-11-03T01:09:32.766Z,19.60
2022-11-03T01:12:12.680Z,20.30
2022-11-03T01:14:51.201Z,19.20
2022-11-03T01:17:29.890Z,20.10
2022-11-03T01:20:06.915Z,21.10
2022-11-03T01:22:42.926Z,20.10
2022-11-03T01:25:18.773Z,20.00
2022-11-03T01:27:54.714Z,19.90
2022-11-03T01:30:30.700Z,19.40
2022-11-03T01:33:06.996Z,20.00
2022-11-03T01:35:43.251Z,20.60
2022-11-03T01:38:19.284Z,22.10
2022-11-03T01:40:56.411Z,22.80
2022-11-03T01:43:33.334Z,23.60
2022-11-03T01:46:19.529Z,24.20
2022-11-03T01:49:03.701Z,23.80
2022-11-03T01:51:43.282Z,22.70
2022-11-03T01:54:27.557Z,23.30
2022-11-03T01:57:05.852Z,22.50
2022-11-03T01:59:42.757Z,22.10
2022-11-03T02:02:18.890Z,21.00
2022-11-03T02:04:55.234Z,21.30
2022-11-03T02:07:42.224Z,22.30
2022-11-03T02:10:18.965Z,21.80
2022-11-03T02:12:55.326Z,21.30
2022-11-03T02:15:32.964Z,22.10
2022-11-03T02:18:11.191Z,22.10
2022-11-03T02:20:50.576Z,23.10
2022-11-03T02:23:42.195Z,21.60
2022-11-03T02:26:19.854Z,22.40
2022-11-03T02:28:55.834Z,21.20
2022-11-03T02:31:43.470Z,22.50
2022-11-03T02:34:28.110Z,22.00
2022-11-03T02:37:13.556Z,21.60
2022-11-03T02:39:55.914Z,21.10
2022-11-03T02:42:33.993Z,20.70
2022-11-03T02:45:18.511Z,21.20
2022-11-03T02:47:59.923Z,21.60
2022-11-03T02:50:37.754Z,20.40
2022-11-03T02:53:17.108Z,19.80
2022-11-03T02:56:04.083Z,19.30
2022-11-03T02:58:49.839Z,19.60
2022-11-03T03:01:34.692Z,18.50
2022-11-03T03:04:16.599Z,19.70
2022-11-03T03:07:02.577Z,20.60
2022-11-03T03:09:45.803Z,19.90
2022-11-03T03:12:25.335Z,19.50
2022-11-03T03:15:05.191Z,19.90
2022-11-03T03:17:53.715Z,20.50
2022-11-03T03:20:38.496Z,20.50
2022-11-03T03:23:21.813Z,21.00
2022-11-03T03:26:06.263Z,20.40
2022-11-03T03:28:49.408Z,20.90
2022-11-03T03:31:29.761Z,21.80
2022-11-03T03:34:23.601Z,20.50
2022-11-03T03:37:08.768Z,20.80
2022-11-03T03:39:49.885Z,21.70
2022-11-03T03:42:31.743Z,21.00
2022-11-03T03:45:11.202Z,19.60
2022-11-03T03:47:48.056Z,20.80
2022-11-03T03:50:26.492Z,21.70
2022-11-03T03:53:06.421Z,21.80
2022-11-03T03:55:46.395Z,21.00
2022-11-03T03:58:22.394Z,19.60
2022-11-03T04:00:58.502Z,21.90
2022-11-03T04:03:34.438Z,21.50
2022-11-03T04:06:11.075Z,22.10
2022-11-03T04:08:46.967Z,20.90
2022-11-03T04:11:40.581Z,21.20
2022-11-03T04:14:34.185Z,20.50
2022-11-03T04:17:38.452Z,21.30
2022-11-03T04:20:35.576Z,21.90
2022-11-03T04:23:11.685Z,20.90
2022-11-03T04:25:54.402Z,21.40
2022-11-03T04:28:30.818Z,20.60
2022-11-03T04:31:11.238Z,21.70
2022-11-03T04:33:48.002Z,21.20
2022-11-03T04:36:27.793Z,22.10
2022-11-03T04:39:07.133Z,22.00
2022-11-03T04:41:43.193Z,21.20
2022-11-03T04:44:21.063Z,22.30
2022-11-03T04:46:58.313Z,23.00
2022-11-03T04:49:34.115Z,23.70
2022-11-03T04:52:18.679Z,23.20
2022-11-03T04:54:56.991Z,23.40
2022-11-03T04:57:33.024Z,23.90
2022-11-03T05:00:18.251Z,23.80
2022-11-03T05:02:56.391Z,23.70
2022-11-03T05:05:32.699Z,24.50
2022-11-03T05:08:12.438Z,24.40
2022-11-03T05:10:49.561Z,24.30
2022-11-03T05:13:30.614Z,23.90
2022-11-03T05:16:10.469Z,22.80
2022-11-03T05:18:50.807Z,22.60
2022-11-03T05:21:30.116Z,23.40
2022-11-03T05:26:58.726Z,22.00
2022-11-03T05:29:41.374Z,24.00
2022-11-03T05:32:24.442Z,33.30
2022-11-03T05:35:00.751Z,22.40
2022-11-03T05:37:38.206Z,22.60
2022-11-03T05:40:25.880Z,22.80
2022-11-03T05:43:06.313Z,22.30
2022-11-03T05:45:46.317Z,22.80
2022-11-03T05:48:35.446Z,22.30
2022-11-03T05:51:25.828Z,21.90
2022-11-03T05:54:06.028Z,23.70
2022-11-03T05:56:41.900Z,32.90
2022-11-03T05:59:25.516Z,23.80
2022-11-03T06:02:05.199Z,22.30
2022-11-03T06:04:42.285Z,20.60
2022-11-03T06:07:27.742Z,19.40
2022-11-03T06:10:03.669Z,20.70
2022-11-03T06:12:39.598Z,20.60
2022-11-03T06:15:31.288Z,21.70
2022-11-03T06:18:20.070Z,21.30
2022-11-03T06:21:04.418Z,21.20
2022-11-03T06:23:42.476Z,23.70
2022-11-03T06:26:25.880Z,23.30
2022-11-03T06:29:04.353Z,22.10
2022-11-03T06:31:43.751Z,22.40
2022-11-03T06:34:38.353Z,23.60
2022-11-03T06:37:31.398Z,22.90
2022-11-03T06:40:41.203Z,25.80
2022-11-03T06:43:37.640Z,24.50
2022-11-03T06:46:23.841Z,25.40
2022-11-03T06:49:04.300Z,27.80
2022-11-03T06:51:41.530Z,30.20
2022-11-03T06:54:17.299Z,28.70
2022-11-03T06:56:53.256Z,32.70
2022-11-03T06:59:29.166Z,34.70
2022-11-03T07:02:14.322Z,33.00
2022-11-03T07:04:51.025Z,33.30
2022-11-03T07:07:29.708Z,35.50
2022-11-03T07:10:06.184Z,37.20
2022-11-03T07:12:42.844Z,43.80
2022-11-03T07:15:33.899Z,45.60
2022-11-03T07:18:23.660Z,49.00
2022-11-03T07:21:07.810Z,43.90
2022-11-03T07:23:46.335Z,36.10
2022-11-03T07:26:23.586Z,29.80
2022-11-03T07:29:00.750Z,26.40
2022-11-03T07:31:36.707Z,23.50
2022-11-03T07:34:23.353Z,23.60
2022-11-03T07:37:01.677Z,22.20
2022-11-03T07:39:41.343Z,20.60
2022-11-03T07:42:22.398Z,21.50
2022-11-03T07:45:01.147Z,21.50
2022-11-03T07:47:37.208Z,20.30
2022-11-03T07:50:20.725Z,18.40
2022-11-03T07:52:56.509Z,17.50
2022-11-03T07:55:32.322Z,16.40
2022-11-03T07:58:35.311Z,15.80
2022-11-03T08:01:26.872Z,15.50
2022-11-03T08:04:08.249Z,15.10
2022-11-03T08:06:44.374Z,14.20
2022-11-03T08:09:21.268Z,13.50
2022-11-03T08:11:57.311Z,12.80
2022-11-03T08:14:34.223Z,13.00
2022-11-03T08:17:10.151Z,13.00
2022-11-03T08:19:45.988Z,13.70
2022-11-03T08:22:23.369Z,13.40
2022-11-03T08:24:59.336Z,14.00
2022-11-03T08:27:35.567Z,14.60
2022-11-03T08:30:14.474Z,14.40
2022-11-03T08:32:50.249Z,14.80
2022-11-03T08:35:30.049Z,14.40
2022-11-03T08:38:09.150Z,14.00
2022-11-03T08:40:45.273Z,11.60
2022-11-03T08:43:21.073Z,12.90
2022-11-03T08:46:03.422Z,12.10
2022-11-03T08:48:46.115Z,11.50
2022-11-03T08:51:22.050Z,11.30
2022-11-03T08:53:57.928Z,11.80
2022-11-03T08:56:33.699Z,12.00
2022-11-03T08:59:09.541Z,10.90
2022-11-03T09:01:46.869Z,10.80
2022-11-03T09:04:22.742Z,11.20
2022-11-03T09:06:58.519Z,9.70
2022-11-03T09:12:30.564Z,14.20
2022-11-03T09:15:08.012Z,10.40
2022-11-03T09:17:45.652Z,11.70
2022-11-03T09:20:22.206Z,12.60
2022-11-03T09:22:58.115Z,10.70
2022-11-03T09:25:34.004Z,10.70
2022-11-03T09:28:10.267Z,10.00
2022-11-03T09:30:46.810Z,12.10
2022-11-03T09:33:22.786Z,10.70
2022-11-03T09:35:58.888Z,11.30
2022-11-03T09:38:34.715Z,11.80
2022-11-03T09:41:26.651Z,10.60
2022-11-03T09:44:12.281Z,10.60
2022-11-03T09:46:48.361Z,9.60
2022-11-03T09:49:25.178Z,9.80
2022-11-03T09:52:01.448Z,9.20
2022-11-03T09:54:37.402Z,9.60
2022-11-03T09:57:18.212Z,9.10
2022-11-03T09:59:55.594Z,9.00
2022-11-03T10:02:38.933Z,9.50
2022-11-03T10:05:23.557Z,8.30
2022-11-03T10:08:05.916Z,7.50
2022-11-03T10:10:43.061Z,8.50
2022-11-03T10:13:29.613Z,8.60
2022-11-03T10:16:09.222Z,7.50
2022-11-03T10:18:45.826Z,8.20
2022-11-03T10:21:27.890Z,7.50
2022-11-03T10:24:03.881Z,8.30
2022-11-03T10:26:51.337Z,6.90
2022-11-03T10:29:29.268Z,7.60
2022-11-03T10:32:05.156Z,6.30
2022-11-03T10:34:42.578Z,6.40
2022-11-03T10:37:26.208Z,5.90
2022-11-03T10:40:02.652Z,6.20
2022-11-03T10:42:38.604Z,6.30
2022-11-03T10:45:21.960Z,5.30
2022-11-03T10:48:09.178Z,4.60
2022-11-03T10:50:46.274Z,4.50
2022-11-03T10:56:06.483Z,4.20
2022-11-03T10:58:42.384Z,3.80
2022-11-03T11:01:18.319Z,3.10
2022-11-03T11:03:55.437Z,3.70
2022-11-03T11:06:34.662Z,3.30
2022-11-03T11:09:16.482Z,3.20
2022-11-03T11:15:00.460Z,3.00
2022-11-03T11:17:51.088Z,3.30
2022-11-03T11:20:42.480Z,2.90
2022-11-03T11:23:52.713Z,3.40
2022-11-03T11:26:39.773Z,3.30
2022-11-03T11:29:48.070Z,3.30
2022-11-03T11:33:13.990Z,3.00
2022-11-03T11:36:26.432Z,3.20
2022-11-03T11:39:04.883Z,2.90
2022-11-03T11:42:17.526Z,3.00
2022-11-03T11:45:05.554Z,2.90
2022-11-03T11:47:51.994Z,3.20
2022-11-03T11:50:36.173Z,3.50
2022-11-03T11:53:29.146Z,4.00
2022-11-03T11:56:10.476Z,3.20
2022-11-03T11:58:54.768Z,3.20
2022-11-03T12:01:35.975Z,3.30
2022-11-03T12:04:24.086Z,2.90
2022-11-03T12:07:00.034Z,3.10
2022-11-03T12:09:36.081Z,3.20
2022-11-03T12:12:33.813Z,2.80
2022-11-03T12:15:41.959Z,3.10
2022-11-03T12:18:41.677Z,3.20
2022-11-03T12:21:52.012Z,3.60
2022-11-03T12:24:51.052Z,3.60
2022-11-03T12:27:46.090Z,3.50
2022-11-03T12:30:23.722Z,2.80
2022-11-03T12:32:59.700Z,3.20
2022-11-03T12:35:35.596Z,3.40
2022-11-03T12:38:11.434Z,3.40
2022-11-03T12:40:47.364Z,3.50
2022-11-03T12:43:23.566Z,3.70
2022-11-03T12:45:59.486Z,3.90
2022-11-03T12:48:35.546Z,3.80
2022-11-03T12:51:12.321Z,3.60
2022-11-03T12:53:48.902Z,3.70
2022-11-03T12:56:36.467Z,3.60
2022-11-03T12:59:12.468Z,3.60
2022-11-03T13:01:48.522Z,3.40
2022-11-03T13:04:24.794Z,3.40
2022-11-03T13:07:00.957Z,4.10
2022-11-03T13:09:37.225Z,3.50
2022-11-03T13:12:35.375Z,3.80
2022-11-03T13:15:15.885Z,4.30
2022-11-03T13:18:12.097Z,4.00
2022-11-03T13:20:47.952Z,3.90
2022-11-03T13:23:24.058Z,3.90
2022-11-03T13:26:00.157Z,4.70
2022-11-03T13:28:36.598Z,3.90
2022-11-03T13:31:12.895Z,3.80
2022-11-03T13:33:48.825Z,3.90
2022-11-03T13:36:24.684Z,3.80
2022-11-03T13:39:00.957Z,3.50
2022-11-03T13:41:36.748Z,3.20
2022-11-03T13:44:12.652Z,3.50
2022-11-03T13:46:48.608Z,3.30
2022-11-03T13:52:21.496Z,3.60
2022-11-03T14:00:49.843Z,3.20
2022-11-03T14:06:23.088Z,3.00
2022-11-03T14:08:59.326Z,3.50
2022-11-03T14:11:53.013Z,3.20
2022-11-03T14:14:28.968Z,3.40
2022-11-03T14:17:04.755Z,3.40
2022-11-03T14:19:45.951Z,3.70
2022-11-03T14:22:24.639Z,3.50
2022-11-03T14:25:01.166Z,3.30
2022-11-03T14:27:37.015Z,3.30
2022-11-03T14:30:16.307Z,3.40
2022-11-03T14:32:56.760Z,3.50
2022-11-03T14:35:35.167Z,3.40
2022-11-03T14:38:11.108Z,3.70
2022-11-03T14:41:04.832Z,3.80
2022-11-03T14:43:41.022Z,3.80
2022-11-03T14:46:17.079Z,3.90
2022-11-03T14:48:54.518Z,3.90
2022-11-03T14:51:30.535Z,4.40
2022-11-03T14:54:06.899Z,3.80
2022-11-03T14:56:43.317Z,3.80
2022-11-03T14:59:19.217Z,4.30
2022-11-03T15:01:57.615Z,4.60
2022-11-03T15:04:33.831Z,5.00
2022-11-03T15:07:09.754Z,4.40
2022-11-03T15:09:46.161Z,5.10
2022-11-03T15:12:22.681Z,4.90
2022-11-03T15:14:58.655Z,4.60
2022-11-03T15:17:34.696Z,4.70
2022-11-03T15:20:14.317Z,5.00
2022-11-03T15:25:46.228Z,4.80
2022-11-03T15:28:22.377Z,4.70
2022-11-03T15:30:58.736Z,4.60
2022-11-03T15:33:35.619Z,5.50
2022-11-03T15:36:12.721Z,4.70
2022-11-03T15:38:48.953Z,5.00
2022-11-03T15:41:25.100Z,5.20
2022-11-03T15:44:01.191Z,5.50
2022-11-03T15:46:37.510Z,5.80
2022-11-03T15:49:13.784Z,6.60
2022-11-03T15:51:49.811Z,6.60
2022-11-03T15:54:25.835Z,7.40
2022-11-03T15:57:01.985Z,7.30
2022-11-03T15:59:38.604Z,8.00
2022-11-03T16:02:39.737Z,7.80
2022-11-03T16:05:13.371Z,8.30
2022-11-03T16:07:49.336Z,9.10
2022-11-03T16:10:25.189Z,9.70
2022-11-03T16:13:01.039Z,9.70
2022-11-03T16:15:37.031Z,11.30
2022-11-03T16:18:12.874Z,9.50
2022-11-03T16:20:48.852Z,10.50
2022-11-03T16:23:24.845Z,10.30
2022-11-03T16:26:00.958Z,9.90
2022-11-03T16:28:37.118Z,10.00
2022-11-03T16:31:13.215Z,10.20
2022-11-03T16:33:49.296Z,10.20
2022-11-03T16:36:25.702Z,9.60
2022-11-03T16:39:01.530Z,9.20
2022-11-03T16:41:37.617Z,9.30
2022-11-03T16:44:13.557Z,9.30
2022-11-03T16:46:49.455Z,9.40
2022-11-03T16:49:25.595Z,9.00
2022-11-03T16:52:01.681Z,8.30
2022-11-03T16:54:37.625Z,8.90
2022-11-03T16:57:13.509Z,9.00
2022-11-03T16:59:49.454Z,9.20
2022-11-03T17:02:25.511Z,8.00
2022-11-03T17:05:01.686Z,8.40
2022-11-03T17:07:37.928Z,8.40
2022-11-03T17:10:15.376Z,9.30
2022-11-03T17:12:51.730Z,9.10
2022-11-03T17:15:27.510Z,8.20
2022-11-03T17:18:06.981Z,9.30
2022-11-03T17:20:43.309Z,9.20
2022-11-03T17:23:19.337Z,9.20
2022-11-03T17:25:56.218Z,9.20
2022-11-03T17:28:33.187Z,9.80
2022-11-03T17:31:09.511Z,9.60
2022-11-03T17:33:46.013Z,9.30
2022-11-03T17:36:22.158Z,9.50
2022-11-03T17:38:58.974Z,10.20
2022-11-03T17:41:36.306Z,9.60
2022-11-03T17:44:18.562Z,10.00
2022-11-03T17:46:55.765Z,9.10
2022-11-03T17:49:31.837Z,9.30
2022-11-03T17:52:11.368Z,10.00
2022-11-03T17:54:47.687Z,10.00
2022-11-03T17:57:26.540Z,9.80
2022-11-03T18:00:05.456Z,10.50
2022-11-03T18:02:45.718Z,9.90
2022-11-03T18:05:30.276Z,12.20
2022-11-03T18:08:12.059Z,8.90
2022-11-03T18:13:34.506Z,10.20
2022-11-03T18:16:13.696Z,11.00
2022-11-03T18:18:49.919Z,12.20
2022-11-03T18:21:33.029Z,11.20
2022-11-03T18:24:17.101Z,11.10
2022-11-03T18:26:53.232Z,9.90
2022-11-03T18:29:29.138Z,11.50
2022-11-03T18:32:05.121Z,11.60
2022-11-03T18:34:41.959Z,11.30
2022-11-03T18:37:17.839Z,12.10
2022-11-03T18:39:53.897Z,11.60
2022-11-03T18:42:30.074Z,11.80
2022-11-03T18:45:14.169Z,11.40
2022-11-03T18:47:50.257Z,11.80
2022-11-03T18:50:26.325Z,11.80
2022-11-03T18:53:02.648Z,12.80
2022-11-03T18:55:38.512Z,12.60
2022-11-03T18:58:24.131Z,12.20
2022-11-03T19:01:00.345Z,11.70
2022-11-03T19:03:36.601Z,12.50
2022-11-03T19:06:14.712Z,13.30
2022-11-03T19:08:53.542Z,13.30
2022-11-03T19:11:29.908Z,13.00
2022-11-03T19:14:06.983Z,13.60
2022-11-03T19:17:01.930Z,12.90
2022-11-03T19:19:39.362Z,14.00
2022-11-03T19:22:21.201Z,14.60
2022-11-03T19:27:36.637Z,12.90
2022-11-03T19:30:19.281Z,14.00
2022-11-03T19:32:58.432Z,14.10
2022-11-03T19:35:38.206Z,14.80
2022-11-03T19:38:19.269Z,14.80
2022-11-03T19:41:13.283Z,15.20
2022-11-03T19:43:49.423Z,15.50
2022-11-03T19:46:26.028Z,15.50
2022-11-03T19:49:02.282Z,15.30
2022-11-03T19:51:42.322Z,16.10
2022-11-03T19:54:25.224Z,15.40
2022-11-03T19:57:04.406Z,14.10
2022-11-03T19:59:49.250Z,15.50
2022-11-03T20:02:27.107Z,15.30
2022-11-03T20:05:06.141Z,14.50
2022-11-03T20:07:50.904Z,13.40
2022-11-03T20:10:35.883Z,15.00
2022-11-03T20:13:26.571Z,15.30
2022-11-03T20:16:14.833Z,15.40
2022-11-03T20:18:53.391Z,15.10
2022-11-03T20:21:34.487Z,13.40
2022-11-03T20:24:15.621Z,14.60
2022-11-03T20:26:54.257Z,14.90
2022-11-03T20:29:34.783Z,14.90
2022-11-03T20:32:14.326Z,15.00
2022-11-03T20:34:50.438Z,14.60
2022-11-03T20:37:26.462Z,15.10
2022-11-03T20:40:02.759Z,14.30
2022-11-03T20:42:40.245Z,14.00
2022-11-03T20:45:22.303Z,14.40
2022-11-03T20:47:58.607Z,14.40
2022-11-03T20:50:35.898Z,13.30
2022-11-03T20:53:19.711Z,13.80
2022-11-03T20:55:56.096Z,13.40
2022-11-03T20:58:32.166Z,13.20
2022-11-03T21:01:17.212Z,13.40
2022-11-03T21:03:59.220Z,12.50
2022-11-03T21:06:37.757Z,13.90
2022-11-03T21:09:18.992Z,14.80
2022-11-03T21:11:56.829Z,13.50
2022-11-03T21:14:34.091Z,13.10
2022-11-03T21:17:33.337Z,13.10
2022-11-03T21:20:13.298Z,13.30
2022-11-03T21:22:56.419Z,13.80
2022-11-03T21:25:32.508Z,13.70
2022-11-03T21:28:08.772Z,14.50
2022-11-03T21:30:45.323Z,13.40
2022-11-03T21:33:22.083Z,25.70
2022-11-03T21:35:57.974Z,32.90
2022-11-03T21:38:34.907Z,15.70
2022-11-03T21:41:35.882Z,13.00
2022-11-03T21:44:17.540Z,13.20
2022-11-03T21:46:53.587Z,12.90
2022-11-03T21:49:45.610Z,12.50
2022-11-03T21:52:32.001Z,13.00
2022-11-03T21:55:10.362Z,13.50
2022-11-03T21:57:46.280Z,13.60
2022-11-03T22:00:23.566Z,13.40
2022-11-03T22:02:59.776Z,30.00
2022-11-03T22:05:35.924Z,30.00
2022-11-03T22:08:14.122Z,15.00
2022-11-03T22:10:50.175Z,13.50
2022-11-03T22:13:26.175Z,13.10
2022-11-03T22:16:19.624Z,13.90
2022-11-03T22:19:15.870Z,12.60
2022-11-03T22:22:09.791Z,12.70
2022-11-03T22:25:11.951Z,13.40
2022-11-03T22:27:48.186Z,26.80
2022-11-03T22:30:42.035Z,19.70
2022-11-03T22:33:18.135Z,13.90
2022-11-03T22:36:17.397Z,13.20
2022-11-03T22:39:14.384Z,12.80
2022-11-03T22:42:08.116Z,13.00
2022-11-03T22:45:01.888Z,13.10
2022-11-03T22:47:37.739Z,13.00
2022-11-03T22:50:14.298Z,13.40
2022-11-03T22:52:50.100Z,13.10
2022-11-03T22:55:26.662Z,13.30
2022-11-03T22:58:02.744Z,13.20
2022-11-03T23:00:38.730Z,13.30
2022-11-03T23:03:14.571Z,12.50
2022-11-03T23:05:50.554Z,13.20
2022-11-03T23:11:16.231Z,11.80
2022-11-03T23:13:59.241Z,12.00
2022-11-03T23:16:38.749Z,12.50
2022-11-03T23:19:34.473Z,12.00
2022-11-03T23:22:10.607Z,12.00
2022-11-03T23:25:01.968Z,11.90
2022-11-03T23:27:37.890Z,12.00
2022-11-03T23:30:16.202Z,12.10
2022-11-03T23:32:52.176Z,11.10
2022-11-03T23:35:28.342Z,10.40
2022-11-03T23:38:04.917Z,12.60
2022-11-03T23:40:41.154Z,11.60
2022-11-03T23:43:17.191Z,10.70
2022-11-03T23:46:10.831Z,10.90
2022-11-03T23:48:46.808Z,10.70
2022-11-03T23:51:24.784Z,12.40
2022-11-03T23:54:02.270Z,10.50
2022-11-03T23:57:04.971Z,11.10
2022-11-03T23:59:41.074Z,10.50
